TRA5161 EHAM-HECA
Flight info
| Callsign | TRA5161 |
|---|---|
| Flight time | N/A |
| Altitude | 35000 |
| Route | EDUPO Z739 MISGO DCT DOJOH DCT DODEN DCT NEGIX DCT DINKU M867 XERUM DCT BAVAX DCT RADIZ DCT NEMEK DCT MAVAR/N0438F370 DCT BITLA DCT KPC UN139 KUMBI L612 BLT A16 CVO |
| Aircraft | B738/M-SDE2E3FGHIJ1RWXYZ/LB1 |
Departure
| Time | 2026-04-29 12:30 |
|---|---|
| Airport | Amsterdam Airport Schiphol (EHAM) |
Arrival
| Time | N/A |
|---|---|
| Airport | Cairo International Airport (HECA) |
| Time | Latitude | Longitude | Altitude | Speed | Heading |
|---|---|---|---|---|---|
| 2026-04-29 11:59 | 52.31121 | 4.76700 | -2 ft | 0 kts | 303° |
| 2026-04-29 12:15 | 52.31111 | 4.76729 | -2 ft | 4 kts | 288° |
| 2026-04-29 12:15 | 52.31104 | 4.76769 | -2 ft | 3 kts | 296° |
| 2026-04-29 12:15 | 52.31092 | 4.76799 | -2 ft | 4 kts | 326° |
| 2026-04-29 12:16 | 52.31069 | 4.76808 | -2 ft | 4 kts | 5° |
| 2026-04-29 12:16 | 52.31056 | 4.76806 | -2 ft | 1 kts | 4° |
| 2026-04-29 12:19 | 52.31060 | 4.76807 | -2 ft | 2 kts | 4° |
| 2026-04-29 12:19 | 52.31081 | 4.76828 | -2 ft | 6 kts | 36° |
| 2026-04-29 12:19 | 52.31128 | 4.76885 | -2 ft | 11 kts | 36° |
| 2026-04-29 12:19 | 52.31200 | 4.76971 | -2 ft | 15 kts | 36° |
| 2026-04-29 12:20 | 52.31294 | 4.77083 | -2 ft | 18 kts | 36° |
| 2026-04-29 12:20 | 52.31409 | 4.77180 | -2 ft | 19 kts | 11° |
| 2026-04-29 12:20 | 52.31538 | 4.77186 | -2 ft | 18 kts | 335° |
| 2026-04-29 12:20 | 52.31563 | 4.76995 | -2 ft | 18 kts | 264° |
| 2026-04-29 12:21 | 52.31551 | 4.76797 | -2 ft | 17 kts | 264° |
| 2026-04-29 12:21 | 52.31545 | 4.76606 | -2 ft | 17 kts | 268° |
| 2026-04-29 12:21 | 52.31542 | 4.76422 | -2 ft | 16 kts | 268° |
| 2026-04-29 12:21 | 52.31535 | 4.76233 | -2 ft | 18 kts | 266° |
| 2026-04-29 12:22 | 52.31528 | 4.76007 | -2 ft | 22 kts | 267° |
| 2026-04-29 12:22 | 52.31520 | 4.75743 | -2 ft | 25 kts | 267° |
| 2026-04-29 12:22 | 52.31511 | 4.75468 | -2 ft | 23 kts | 267° |
| 2026-04-29 12:22 | 52.31504 | 4.75209 | -2 ft | 23 kts | 267° |
| 2026-04-29 12:23 | 52.31496 | 4.74956 | -2 ft | 22 kts | 267° |
| 2026-04-29 12:23 | 52.31489 | 4.74711 | -2 ft | 21 kts | 267° |
| 2026-04-29 12:23 | 52.31481 | 4.74473 | -2 ft | 21 kts | 267° |
| 2026-04-29 12:23 | 52.31502 | 4.74305 | -2 ft | 8 kts | 336° |
| 2026-04-29 12:24 | 52.31566 | 4.74299 | -2 ft | 11 kts | 2° |
| 2026-04-29 12:24 | 52.31665 | 4.74308 | -2 ft | 17 kts | 2° |
| 2026-04-29 12:24 | 52.31785 | 4.74318 | -2 ft | 17 kts | 6° |
| 2026-04-29 12:24 | 52.31901 | 4.74330 | -2 ft | 16 kts | 3° |
| 2026-04-29 12:25 | 52.32008 | 4.74304 | -2 ft | 16 kts | 318° |
| 2026-04-29 12:25 | 52.32033 | 4.74137 | -2 ft | 15 kts | 275° |
| 2026-04-29 12:25 | 52.32044 | 4.73811 | -2 ft | 14 kts | 272° |
| 2026-04-29 12:26 | 52.32048 | 4.73657 | -2 ft | 13 kts | 272° |
| 2026-04-29 12:26 | 52.32051 | 4.73509 | -2 ft | 13 kts | 272° |
| 2026-04-29 12:26 | 52.32080 | 4.73375 | -2 ft | 13 kts | 306° |
| 2026-04-29 12:26 | 52.32143 | 4.73280 | -2 ft | 12 kts | 319° |
| 2026-04-29 12:27 | 52.32216 | 4.73176 | -2 ft | 16 kts | 319° |
| 2026-04-29 12:27 | 52.32314 | 4.73040 | -2 ft | 21 kts | 320° |
| 2026-04-29 12:27 | 52.32438 | 4.72870 | -2 ft | 25 kts | 320° |
| 2026-04-29 12:27 | 52.32576 | 4.72669 | -2 ft | 27 kts | 319° |
| 2026-04-29 12:28 | 52.32707 | 4.72466 | -2 ft | 25 kts | 310° |
| 2026-04-29 12:28 | 52.32817 | 4.72258 | -2 ft | 23 kts | 305° |
| 2026-04-29 12:28 | 52.32837 | 4.72006 | -2 ft | 23 kts | 279° |
| 2026-04-29 12:28 | 52.32927 | 4.71805 | -2 ft | 22 kts | 312° |
| 2026-04-29 12:29 | 52.33031 | 4.71611 | -2 ft | 24 kts | 311° |
| 2026-04-29 12:29 | 52.33152 | 4.71384 | 21 ft | 29 kts | 311° |
| 2026-04-29 12:29 | 52.33294 | 4.71122 | -2 ft | 33 kts | 311° |
| 2026-04-29 12:29 | 52.33485 | 4.70954 | -3 ft | 34 kts | 358° |
| 2026-04-29 12:30 | 52.33977 | 4.70994 | -2 ft | 109 kts | 3° |
| 2026-04-29 12:30 | 52.34969 | 4.71094 | 30 ft | 172 kts | 4° |
| 2026-04-29 12:30 | 52.36250 | 4.71229 | 504 ft | 198 kts | 15° |
| 2026-04-29 12:30 | 52.37637 | 4.71468 | 1322 ft | 202 kts | 10° |
| 2026-04-29 12:31 | 52.39006 | 4.71583 | 2482 ft | 198 kts | 9° |
| 2026-04-29 12:31 | 52.40443 | 4.71705 | 2846 ft | 219 kts | 9° |
| 2026-04-29 12:31 | 52.42062 | 4.71924 | 3109 ft | 243 kts | 19° |
| 2026-04-29 12:31 | 52.43582 | 4.73084 | 3746 ft | 247 kts | 37° |
| 2026-04-29 12:32 | 52.45036 | 4.74472 | 4644 ft | 247 kts | 35° |
| 2026-04-29 12:32 | 52.46531 | 4.75898 | 5501 ft | 250 kts | 40° |
| 2026-04-29 12:32 | 52.47670 | 4.77993 | 6279 ft | 247 kts | 63° |
| 2026-04-29 12:32 | 52.48212 | 4.80614 | 7063 ft | 249 kts | 81° |
| 2026-04-29 12:33 | 52.48400 | 4.83457 | 7837 ft | 253 kts | 85° |
| 2026-04-29 12:33 | 52.48532 | 4.86361 | 8599 ft | 258 kts | 85° |
| 2026-04-29 12:33 | 52.48502 | 4.89319 | 9375 ft | 262 kts | 102° |
| 2026-04-29 12:33 | 52.47772 | 4.92093 | 10130 ft | 272 kts | 122° |
| 2026-04-29 12:34 | 52.46433 | 4.94347 | 10773 ft | 284 kts | 138° |
| 2026-04-29 12:34 | 52.44766 | 4.96343 | 10980 ft | 309 kts | 141° |
| 2026-04-29 12:34 | 52.42928 | 4.98418 | 11208 ft | 330 kts | 142° |
| 2026-04-29 12:34 | 52.41001 | 5.00578 | 11738 ft | 340 kts | 142° |
| 2026-04-29 12:35 | 52.39706 | 5.02044 | 12163 ft | 344 kts | 142° |
| 2026-04-29 12:35 | 52.37739 | 5.04298 | 12874 ft | 347 kts | 141° |
| 2026-04-29 12:35 | 52.35102 | 5.07338 | 13781 ft | 353 kts | 141° |
| 2026-04-29 12:35 | 52.33117 | 5.09743 | 14425 ft | 356 kts | 134° |
| 2026-04-29 12:36 | 52.31421 | 5.12681 | 15036 ft | 356 kts | 127° |
| 2026-04-29 12:36 | 52.29856 | 5.15847 | 15660 ft | 360 kts | 124° |
| 2026-04-29 12:36 | 52.28841 | 5.17996 | 16062 ft | 363 kts | 124° |
| 2026-04-29 12:36 | 52.27305 | 5.21299 | 16684 ft | 367 kts | 124° |
| 2026-04-29 12:37 | 52.25756 | 5.24635 | 17277 ft | 371 kts | 123° |
| 2026-04-29 12:37 | 52.24180 | 5.28011 | 17870 ft | 376 kts | 124° |
| 2026-04-29 12:37 | 52.22055 | 5.32532 | 18639 ft | 382 kts | 124° |
| 2026-04-29 12:37 | 52.20425 | 5.35978 | 19166 ft | 385 kts | 124° |
| 2026-04-29 12:38 | 52.18782 | 5.39436 | 19787 ft | 386 kts | 124° |
| 2026-04-29 12:38 | 52.17670 | 5.41773 | 20196 ft | 387 kts | 124° |
| 2026-04-29 12:38 | 52.16041 | 5.45194 | 20741 ft | 389 kts | 124° |
| 2026-04-29 12:38 | 52.14373 | 5.48693 | 21250 ft | 392 kts | 124° |
| 2026-04-29 12:39 | 52.12692 | 5.52210 | 21806 ft | 394 kts | 124° |
| 2026-04-29 12:39 | 52.11004 | 5.55739 | 22362 ft | 396 kts | 124° |
| 2026-04-29 12:39 | 52.09308 | 5.59281 | 22903 ft | 398 kts | 124° |
| 2026-04-29 12:39 | 52.07041 | 5.64007 | 23577 ft | 402 kts | 124° |
| 2026-04-29 12:40 | 52.05877 | 5.66430 | 23896 ft | 404 kts | 124° |
| 2026-04-29 12:40 | 52.04145 | 5.70032 | 24309 ft | 406 kts | 124° |
| 2026-04-29 12:40 | 52.02403 | 5.73649 | 24747 ft | 408 kts | 124° |
| 2026-04-29 12:40 | 52.00677 | 5.77231 | 25167 ft | 409 kts | 124° |
| 2026-04-29 12:41 | 51.98918 | 5.80873 | 25580 ft | 411 kts | 124° |
| 2026-04-29 12:41 | 51.97148 | 5.84522 | 25978 ft | 413 kts | 124° |
| 2026-04-29 12:41 | 51.95289 | 5.88096 | 26374 ft | 416 kts | 127° |
| 2026-04-29 12:41 | 51.93367 | 5.91618 | 26761 ft | 418 kts | 127° |
| 2026-04-29 12:42 | 51.91429 | 5.95141 | 27139 ft | 420 kts | 127° |
| 2026-04-29 12:42 | 51.89491 | 5.98691 | 27501 ft | 422 kts | 126° |
| 2026-04-29 12:42 | 51.87555 | 6.02269 | 27860 ft | 423 kts | 126° |
| 2026-04-29 12:42 | 51.85614 | 6.05865 | 28210 ft | 425 kts | 126° |
| 2026-04-29 12:43 | 51.83685 | 6.09420 | 28538 ft | 427 kts | 126° |
| 2026-04-29 12:43 | 51.81715 | 6.13026 | 28873 ft | 429 kts | 126° |
| 2026-04-29 12:43 | 51.79732 | 6.16649 | 29192 ft | 431 kts | 126° |
| 2026-04-29 12:43 | 51.77744 | 6.20276 | 29521 ft | 433 kts | 126° |
| 2026-04-29 12:44 | 51.75746 | 6.23921 | 29834 ft | 434 kts | 126° |
| 2026-04-29 12:44 | 51.73744 | 6.27576 | 30204 ft | 434 kts | 126° |
| 2026-04-29 12:44 | 51.71749 | 6.31215 | 30663 ft | 431 kts | 126° |
| 2026-04-29 12:44 | 51.69768 | 6.34824 | 31083 ft | 429 kts | 126° |
| 2026-04-29 12:45 | 51.67795 | 6.38420 | 31414 ft | 429 kts | 126° |
| 2026-04-29 12:45 | 51.65816 | 6.42020 | 31703 ft | 429 kts | 126° |
| 2026-04-29 12:45 | 51.63862 | 6.45566 | 32032 ft | 428 kts | 126° |
| 2026-04-29 12:45 | 51.61887 | 6.49143 | 32410 ft | 427 kts | 126° |
| 2026-04-29 12:46 | 51.59918 | 6.52701 | 32770 ft | 425 kts | 126° |
| 2026-04-29 12:46 | 51.57954 | 6.56251 | 33083 ft | 425 kts | 126° |
| 2026-04-29 12:46 | 51.55987 | 6.59800 | 33367 ft | 425 kts | 125° |
| 2026-04-29 12:46 | 51.54024 | 6.63341 | 33702 ft | 424 kts | 125° |
| 2026-04-29 12:47 | 51.52062 | 6.66872 | 34028 ft | 423 kts | 125° |
| 2026-04-29 12:47 | 51.50107 | 6.70388 | 34344 ft | 422 kts | 125° |
| 2026-04-29 12:47 | 51.48150 | 6.73902 | 34548 ft | 423 kts | 125° |
| 2026-04-29 12:47 | 51.46186 | 6.77428 | 34699 ft | 425 kts | 126° |
| 2026-04-29 12:48 | 51.44241 | 6.80914 | 34880 ft | 426 kts | 126° |
| 2026-04-29 12:48 | 51.42261 | 6.84454 | 35100 ft | 426 kts | 126° |
| 2026-04-29 12:48 | 51.40277 | 6.87971 | 35291 ft | 428 kts | 128° |
| 2026-04-29 12:49 | 51.36013 | 6.94772 | 35318 ft | 434 kts | 130° |
| 2026-04-29 12:49 | 51.31658 | 7.01405 | 35314 ft | 431 kts | 130° |
| 2026-04-29 12:50 | 51.27347 | 7.07996 | 35322 ft | 427 kts | 130° |
| 2026-04-29 12:50 | 51.23104 | 7.14524 | 35326 ft | 426 kts | 130° |
| 2026-04-29 12:51 | 51.18843 | 7.21082 | 35323 ft | 425 kts | 130° |
| 2026-04-29 12:51 | 51.14579 | 7.27629 | 35310 ft | 426 kts | 130° |
| 2026-04-29 12:52 | 51.10288 | 7.34201 | 35340 ft | 431 kts | 130° |
| 2026-04-29 12:52 | 51.05946 | 7.40831 | 35473 ft | 439 kts | 130° |
| 2026-04-29 12:52 | 51.03737 | 7.44195 | 35588 ft | 441 kts | 131° |
| 2026-04-29 12:53 | 51.01520 | 7.47565 | 35790 ft | 441 kts | 131° |
| 2026-04-29 12:53 | 50.99301 | 7.50932 | 35997 ft | 441 kts | 131° |
| 2026-04-29 12:53 | 50.97080 | 7.54299 | 36141 ft | 442 kts | 131° |
| 2026-04-29 12:53 | 50.94852 | 7.57673 | 36304 ft | 443 kts | 131° |
| 2026-04-29 12:54 | 50.92623 | 7.61045 | 36486 ft | 444 kts | 132° |
| 2026-04-29 12:54 | 50.90391 | 7.64417 | 36650 ft | 444 kts | 132° |
| 2026-04-29 12:54 | 50.88147 | 7.67804 | 36808 ft | 445 kts | 132° |
| 2026-04-29 12:54 | 50.85934 | 7.71138 | 36963 ft | 446 kts | 132° |
| 2026-04-29 12:55 | 50.83687 | 7.74517 | 37116 ft | 447 kts | 133° |
| 2026-04-29 12:55 | 50.81425 | 7.77898 | 37261 ft | 447 kts | 133° |
| 2026-04-29 12:55 | 50.79161 | 7.81265 | 37314 ft | 449 kts | 133° |
| 2026-04-29 12:56 | 50.74594 | 7.88038 | 37320 ft | 451 kts | 133° |
| 2026-04-29 12:56 | 50.70026 | 7.94800 | 37322 ft | 450 kts | 133° |
| 2026-04-29 12:57 | 50.65457 | 8.01553 | 37324 ft | 449 kts | 133° |
| 2026-04-29 12:57 | 50.60929 | 8.08228 | 37318 ft | 449 kts | 133° |
| 2026-04-29 12:58 | 50.56855 | 8.15583 | 37326 ft | 445 kts | 125° |
| 2026-04-29 12:58 | 50.53059 | 8.23253 | 37321 ft | 445 kts | 124° |
| 2026-04-29 12:59 | 50.49223 | 8.30891 | 37312 ft | 446 kts | 125° |
| 2026-04-29 12:59 | 50.45344 | 8.38494 | 37304 ft | 447 kts | 126° |
| 2026-04-29 13:00 | 50.41359 | 8.45914 | 37305 ft | 449 kts | 130° |
| 2026-04-29 13:00 | 50.36956 | 8.52898 | 37302 ft | 451 kts | 132° |
| 2026-04-29 13:01 | 50.32484 | 8.59805 | 37295 ft | 453 kts | 132° |
| 2026-04-29 13:01 | 50.28016 | 8.66774 | 37284 ft | 454 kts | 132° |
| 2026-04-29 13:02 | 50.23557 | 8.73779 | 37285 ft | 455 kts | 132° |
| 2026-04-29 13:02 | 50.21326 | 8.77294 | 36528 ft | 454 kts | 135° |
| 2026-04-29 13:02 | 50.19147 | 8.80722 | 36758 ft | 449 kts | 135° |
| 2026-04-29 13:02 | 50.16936 | 8.84186 | 37506 ft | 454 kts | 132° |
| 2026-04-29 13:03 | 50.14696 | 8.87693 | 37392 ft | 458 kts | 132° |
| 2026-04-29 13:03 | 50.10175 | 8.94758 | 37305 ft | 461 kts | 132° |
| 2026-04-29 13:04 | 50.05640 | 9.01823 | 37272 ft | 461 kts | 132° |
| 2026-04-29 13:04 | 50.01103 | 9.08871 | 37255 ft | 461 kts | 133° |
| 2026-04-29 13:05 | 49.96598 | 9.15850 | 37260 ft | 460 kts | 133° |
| 2026-04-29 13:05 | 49.92068 | 9.22849 | 37256 ft | 459 kts | 133° |
| 2026-04-29 13:06 | 49.87542 | 9.29822 | 37266 ft | 458 kts | 133° |
| 2026-04-29 13:06 | 49.83015 | 9.36778 | 37254 ft | 459 kts | 133° |
| 2026-04-29 13:07 | 49.78476 | 9.43732 | 37254 ft | 459 kts | 133° |
| 2026-04-29 13:07 | 49.73930 | 9.50677 | 37253 ft | 460 kts | 134° |
| 2026-04-29 13:08 | 49.69399 | 9.57581 | 37254 ft | 461 kts | 134° |
| 2026-04-29 13:08 | 49.64823 | 9.64534 | 37252 ft | 462 kts | 134° |
| 2026-04-29 13:09 | 49.60228 | 9.71496 | 37247 ft | 464 kts | 134° |
| 2026-04-29 13:09 | 49.55616 | 9.78464 | 37240 ft | 465 kts | 134° |
| 2026-04-29 13:10 | 49.50981 | 9.85447 | 37238 ft | 467 kts | 135° |
| 2026-04-29 13:10 | 49.46365 | 9.92382 | 37239 ft | 468 kts | 135° |
| 2026-04-29 13:11 | 49.41700 | 9.99371 | 37244 ft | 469 kts | 135° |
| 2026-04-29 13:11 | 49.37020 | 10.06363 | 37241 ft | 470 kts | 135° |
| 2026-04-29 13:12 | 49.32332 | 10.13349 | 37241 ft | 470 kts | 135° |
| 2026-04-29 13:12 | 49.27636 | 10.20325 | 37247 ft | 471 kts | 135° |
| 2026-04-29 13:13 | 49.22962 | 10.27250 | 37246 ft | 471 kts | 136° |
| 2026-04-29 13:13 | 49.18251 | 10.34210 | 37266 ft | 471 kts | 136° |
| 2026-04-29 13:14 | 49.13536 | 10.41157 | 37254 ft | 471 kts | 136° |
| 2026-04-29 13:14 | 49.08817 | 10.48090 | 37271 ft | 471 kts | 136° |
| 2026-04-29 13:15 | 49.04126 | 10.54964 | 37264 ft | 471 kts | 136° |
| 2026-04-29 13:15 | 48.99395 | 10.61876 | 37262 ft | 471 kts | 136° |
| 2026-04-29 13:16 | 48.94658 | 10.68779 | 37263 ft | 472 kts | 137° |
| 2026-04-29 13:16 | 48.89908 | 10.75681 | 37255 ft | 473 kts | 137° |
| 2026-04-29 13:17 | 48.85208 | 10.82491 | 37240 ft | 473 kts | 137° |
| 2026-04-29 13:17 | 48.80466 | 10.89344 | 37217 ft | 474 kts | 137° |
| 2026-04-29 13:18 | 48.75681 | 10.96239 | 37217 ft | 475 kts | 137° |
| 2026-04-29 13:18 | 48.70883 | 11.03135 | 37207 ft | 476 kts | 137° |
| 2026-04-29 13:19 | 48.66078 | 11.10021 | 37211 ft | 476 kts | 137° |
| 2026-04-29 13:19 | 48.61257 | 11.16911 | 37213 ft | 477 kts | 137° |
| 2026-04-29 13:20 | 48.56463 | 11.23745 | 37208 ft | 478 kts | 138° |
| 2026-04-29 13:20 | 48.51622 | 11.30625 | 37212 ft | 478 kts | 138° |
| 2026-04-29 13:21 | 48.46768 | 11.37506 | 37202 ft | 479 kts | 138° |
| 2026-04-29 13:21 | 48.41905 | 11.44380 | 37210 ft | 480 kts | 138° |
| 2026-04-29 13:22 | 48.37032 | 11.51248 | 37210 ft | 480 kts | 138° |
| 2026-04-29 13:22 | 48.32187 | 11.58060 | 37208 ft | 480 kts | 138° |
| 2026-04-29 13:23 | 48.27299 | 11.64913 | 37209 ft | 481 kts | 138° |
| 2026-04-29 13:23 | 48.22406 | 11.71754 | 37214 ft | 481 kts | 139° |
| 2026-04-29 13:24 | 48.17507 | 11.78585 | 37209 ft | 481 kts | 139° |
| 2026-04-29 13:24 | 48.12635 | 11.85360 | 37211 ft | 481 kts | 139° |
| 2026-04-29 13:25 | 48.07726 | 11.92167 | 37204 ft | 481 kts | 139° |
| 2026-04-29 13:25 | 48.00345 | 12.02367 | 37202 ft | 482 kts | 139° |
| 2026-04-29 13:26 | 47.95414 | 12.09159 | 37194 ft | 482 kts | 139° |
| 2026-04-29 13:26 | 47.90482 | 12.15935 | 37194 ft | 482 kts | 139° |
| 2026-04-29 13:27 | 47.85576 | 12.22656 | 37194 ft | 482 kts | 139° |
| 2026-04-29 13:27 | 47.80630 | 12.29413 | 37188 ft | 483 kts | 140° |
| 2026-04-29 13:28 | 47.75677 | 12.36162 | 37202 ft | 483 kts | 140° |
| 2026-04-29 13:28 | 47.70716 | 12.42905 | 37203 ft | 483 kts | 140° |
| 2026-04-29 13:29 | 47.65754 | 12.49633 | 37199 ft | 482 kts | 140° |
| 2026-04-29 13:29 | 47.60833 | 12.56321 | 37186 ft | 484 kts | 139° |
| 2026-04-29 13:30 | 47.55959 | 12.63206 | 37187 ft | 484 kts | 139° |
| 2026-04-29 13:30 | 47.54382 | 12.65456 | 37168 ft | 485 kts | 138° |